sensor_id;sensor_type;location;lat;lon;timestamp;P1;durP1;ratioP1;P2;durP2;ratioP2
67941;SDS011;54731;42.600;23.476;2023-02-26T00:01:00;21.00;;;5.43;;
67941;SDS011;54731;42.600;23.476;2023-02-26T00:03:25;12.07;;;4.23;;
67941;SDS011;54731;42.600;23.476;2023-02-26T00:05:51;11.95;;;3.50;;
67941;SDS011;54731;42.600;23.476;2023-02-26T00:08:16;16.43;;;4.40;;
67941;SDS011;54731;42.600;23.476;2023-02-26T00:10:42;21.90;;;4.47;;
67941;SDS011;54731;42.600;23.476;2023-02-26T00:13:08;15.52;;;3.53;;
67941;SDS011;54731;42.600;23.476;2023-02-26T00:15:35;11.50;;;3.90;;
67941;SDS011;54731;42.600;23.476;2023-02-26T00:18:05;13.10;;;3.63;;
67941;SDS011;54731;42.600;23.476;2023-02-26T00:20:33;13.10;;;3.50;;
67941;SDS011;54731;42.600;23.476;2023-02-26T00:23:00;10.57;;;4.03;;
67941;SDS011;54731;42.600;23.476;2023-02-26T00:25:26;13.03;;;4.00;;
67941;SDS011;54731;42.600;23.476;2023-02-26T00:27:51;18.93;;;4.47;;
67941;SDS011;54731;42.600;23.476;2023-02-26T00:30:17;18.38;;;5.70;;
67941;SDS011;54731;42.600;23.476;2023-02-26T00:32:43;20.23;;;5.20;;
67941;SDS011;54731;42.600;23.476;2023-02-26T00:35:12;16.05;;;5.07;;
67941;SDS011;54731;42.600;23.476;2023-02-26T00:45:44;13.13;;;5.25;;
67941;SDS011;54731;42.600;23.476;2023-02-26T00:48:21;12.80;;;3.97;;
67941;SDS011;54731;42.600;23.476;2023-02-26T00:50:55;10.20;;;4.10;;
67941;SDS011;54731;42.600;23.476;2023-02-26T00:53:30;9.80;;;3.50;;
67941;SDS011;54731;42.600;23.476;2023-02-26T00:56:07;24.90;;;5.03;;
67941;SDS011;54731;42.600;23.476;2023-02-26T00:58:32;16.97;;;4.50;;
67941;SDS011;54731;42.600;23.476;2023-02-26T01:00:58;13.77;;;4.10;;
67941;SDS011;54731;42.600;23.476;2023-02-26T01:03:24;21.20;;;4.35;;
67941;SDS011;54731;42.600;23.476;2023-02-26T01:05:49;24.47;;;4.90;;
67941;SDS011;54731;42.600;23.476;2023-02-26T01:08:31;17.67;;;4.00;;
67941;SDS011;54731;42.600;23.476;2023-02-26T01:10:59;16.92;;;4.03;;
67941;SDS011;54731;42.600;23.476;2023-02-26T01:13:25;14.10;;;3.63;;
67941;SDS011;54731;42.600;23.476;2023-02-26T01:15:54;18.77;;;4.47;;
67941;SDS011;54731;42.600;23.476;2023-02-26T01:18:27;18.60;;;5.78;;
67941;SDS011;54731;42.600;23.476;2023-02-26T01:21:02;21.23;;;4.68;;
67941;SDS011;54731;42.600;23.476;2023-02-26T01:23:30;11.35;;;3.38;;
67941;SDS011;54731;42.600;23.476;2023-02-26T01:26:03;14.33;;;3.40;;
67941;SDS011;54731;42.600;23.476;2023-02-26T01:28:32;16.40;;;3.10;;
67941;SDS011;54731;42.600;23.476;2023-02-26T01:30:58;17.45;;;4.80;;
67941;SDS011;54731;42.600;23.476;2023-02-26T01:47:18;48.57;;;12.13;;
67941;SDS011;54731;42.600;23.476;2023-02-26T01:49:12;25.25;;;6.07;;
67941;SDS011;54731;42.600;23.476;2023-02-26T01:51:49;21.45;;;3.92;;
67941;SDS011;54731;42.600;23.476;2023-02-26T01:54:18;15.60;;;2.67;;
67941;SDS011;54731;42.600;23.476;2023-02-26T01:56:46;16.58;;;3.25;;
67941;SDS011;54731;42.600;23.476;2023-02-26T01:59:15;13.83;;;3.43;;
67941;SDS011;54731;42.600;23.476;2023-02-26T02:01:42;9.45;;;2.90;;
67941;SDS011;54731;42.600;23.476;2023-02-26T02:04:12;17.38;;;3.30;;
67941;SDS011;54731;42.600;23.476;2023-02-26T02:06:39;20.13;;;3.38;;
67941;SDS011;54731;42.600;23.476;2023-02-26T02:09:06;11.80;;;2.70;;
67941;SDS011;54731;42.600;23.476;2023-02-26T02:11:33;13.35;;;3.25;;
67941;SDS011;54731;42.600;23.476;2023-02-26T02:14:07;13.00;;;3.38;;
67941;SDS011;54731;42.600;23.476;2023-02-26T02:16:59;10.35;;;3.00;;
67941;SDS011;54731;42.600;23.476;2023-02-26T02:19:40;15.75;;;3.78;;
67941;SDS011;54731;42.600;23.476;2023-02-26T02:25:15;12.35;;;2.63;;
67941;SDS011;54731;42.600;23.476;2023-02-26T02:30:36;13.02;;;2.88;;
67941;SDS011;54731;42.600;23.476;2023-02-26T02:33:26;10.02;;;2.45;;
67941;SDS011;54731;42.600;23.476;2023-02-26T02:35:56;11.60;;;2.47;;
67941;SDS011;54731;42.600;23.476;2023-02-26T02:38:26;18.30;;;3.03;;
67941;SDS011;54731;42.600;23.476;2023-02-26T02:41:06;17.70;;;4.38;;
67941;SDS011;54731;42.600;23.476;2023-02-26T02:43:36;12.80;;;2.95;;
67941;SDS011;54731;42.600;23.476;2023-02-26T02:46:07;11.80;;;3.20;;
67941;SDS011;54731;42.600;23.476;2023-02-26T02:48:40;11.52;;;2.83;;
67941;SDS011;54731;42.600;23.476;2023-02-26T02:51:54;10.85;;;2.80;;
67941;SDS011;54731;42.600;23.476;2023-02-26T02:56:37;12.25;;;2.05;;
67941;SDS011;54731;42.600;23.476;2023-02-26T03:01:55;12.60;;;3.08;;
67941;SDS011;54731;42.600;23.476;2023-02-26T03:04:33;12.93;;;2.30;;
67941;SDS011;54731;42.600;23.476;2023-02-26T03:06:59;15.98;;;3.75;;
67941;SDS011;54731;42.600;23.476;2023-02-26T03:09:24;11.73;;;2.27;;
67941;SDS011;54731;42.600;23.476;2023-02-26T03:11:49;10.93;;;2.20;;
67941;SDS011;54731;42.600;23.476;2023-02-26T03:14:15;11.30;;;2.53;;
67941;SDS011;54731;42.600;23.476;2023-02-26T03:25:05;10.52;;;3.03;;
67941;SDS011;54731;42.600;23.476;2023-02-26T03:27:43;10.07;;;2.55;;
67941;SDS011;54731;42.600;23.476;2023-02-26T03:30:20;8.95;;;2.33;;
67941;SDS011;54731;42.600;23.476;2023-02-26T03:33:01;7.83;;;1.87;;
67941;SDS011;54731;42.600;23.476;2023-02-26T03:35:41;10.25;;;2.30;;
67941;SDS011;54731;42.600;23.476;2023-02-26T03:41:31;10.48;;;3.03;;
67941;SDS011;54731;42.600;23.476;2023-02-26T03:44:07;11.10;;;2.63;;
67941;SDS011;54731;42.600;23.476;2023-02-26T03:46:42;10.00;;;2.40;;
67941;SDS011;54731;42.600;23.476;2023-02-26T03:49:13;16.33;;;3.17;;
67941;SDS011;54731;42.600;23.476;2023-02-26T03:51:44;14.23;;;3.05;;
67941;SDS011;54731;42.600;23.476;2023-02-26T03:54:21;11.60;;;2.50;;
67941;SDS011;54731;42.600;23.476;2023-02-26T03:56:54;12.85;;;1.88;;
67941;SDS011;54731;42.600;23.476;2023-02-26T03:59:20;10.50;;;2.07;;
67941;SDS011;54731;42.600;23.476;2023-02-26T04:04:32;15.15;;;2.63;;
67941;SDS011;54731;42.600;23.476;2023-02-26T04:07:02;9.95;;;2.97;;
67941;SDS011;54731;42.600;23.476;2023-02-26T04:09:28;9.33;;;2.27;;
67941;SDS011;54731;42.600;23.476;2023-02-26T04:11:53;18.60;;;3.17;;
67941;SDS011;54731;42.600;23.476;2023-02-26T04:14:21;10.73;;;2.63;;
67941;SDS011;54731;42.600;23.476;2023-02-26T04:16:46;12.47;;;3.33;;
67941;SDS011;54731;42.600;23.476;2023-02-26T04:19:11;12.50;;;2.80;;
67941;SDS011;54731;42.600;23.476;2023-02-26T04:21:37;9.32;;;2.25;;
67941;SDS011;54731;42.600;23.476;2023-02-26T04:24:02;16.63;;;2.33;;
67941;SDS011;54731;42.600;23.476;2023-02-26T04:26:28;13.63;;;3.50;;
67941;SDS011;54731;42.600;23.476;2023-02-26T04:28:53;15.43;;;2.73;;
67941;SDS011;54731;42.600;23.476;2023-02-26T04:31:18;14.73;;;3.17;;
67941;SDS011;54731;42.600;23.476;2023-02-26T04:33:43;11.38;;;2.45;;
67941;SDS011;54731;42.600;23.476;2023-02-26T04:36:09;15.70;;;3.25;;
67941;SDS011;54731;42.600;23.476;2023-02-26T04:38:34;17.57;;;3.47;;
67941;SDS011;54731;42.600;23.476;2023-02-26T04:40:59;14.50;;;4.60;;
67941;SDS011;54731;42.600;23.476;2023-02-26T04:43:26;18.13;;;3.67;;
67941;SDS011;54731;42.600;23.476;2023-02-26T04:45:52;17.20;;;3.33;;
67941;SDS011;54731;42.600;23.476;2023-02-26T04:48:17;14.33;;;3.40;;
67941;SDS011;54731;42.600;23.476;2023-02-26T04:50:43;10.68;;;2.95;;
67941;SDS011;54731;42.600;23.476;2023-02-26T04:53:09;176.23;;;51.27;;
67941;SDS011;54731;42.600;23.476;2023-02-26T04:55:34;99.03;;;30.88;;
67941;SDS011;54731;42.600;23.476;2023-02-26T04:58:00;88.73;;;29.17;;
67941;SDS011;54731;42.600;23.476;2023-02-26T05:00:26;25.40;;;5.88;;
67941;SDS011;54731;42.600;23.476;2023-02-26T05:02:51;16.30;;;4.25;;
67941;SDS011;54731;42.600;23.476;2023-02-26T05:05:17;16.70;;;2.40;;
67941;SDS011;54731;42.600;23.476;2023-02-26T05:07:42;21.58;;;4.78;;
67941;SDS011;54731;42.600;23.476;2023-02-26T05:10:08;20.02;;;3.40;;
67941;SDS011;54731;42.600;23.476;2023-02-26T05:12:34;19.43;;;3.47;;
67941;SDS011;54731;42.600;23.476;2023-02-26T05:14:59;15.18;;;3.05;;
67941;SDS011;54731;42.600;23.476;2023-02-26T05:17:25;12.60;;;3.00;;
67941;SDS011;54731;42.600;23.476;2023-02-26T05:19:50;17.27;;;4.57;;
67941;SDS011;54731;42.600;23.476;2023-02-26T05:22:15;21.97;;;3.10;;
67941;SDS011;54731;42.600;23.476;2023-02-26T05:24:41;13.73;;;2.60;;
67941;SDS011;54731;42.600;23.476;2023-02-26T05:27:06;15.87;;;4.00;;
67941;SDS011;54731;42.600;23.476;2023-02-26T05:29:31;107.67;;;45.87;;
67941;SDS011;54731;42.600;23.476;2023-02-26T05:31:57;49.53;;;24.20;;
67941;SDS011;54731;42.600;23.476;2023-02-26T05:34:22;22.17;;;7.43;;
67941;SDS011;54731;42.600;23.476;2023-02-26T05:36:48;28.40;;;8.10;;
67941;SDS011;54731;42.600;23.476;2023-02-26T05:39:14;20.63;;;4.90;;
67941;SDS011;54731;42.600;23.476;2023-02-26T05:41:40;20.48;;;3.83;;
67941;SDS011;54731;42.600;23.476;2023-02-26T05:44:05;19.10;;;3.37;;
67941;SDS011;54731;42.600;23.476;2023-02-26T05:46:30;19.40;;;4.00;;
67941;SDS011;54731;42.600;23.476;2023-02-26T05:48:55;16.20;;;3.37;;
67941;SDS011;54731;42.600;23.476;2023-02-26T05:51:21;14.57;;;2.80;;
67941;SDS011;54731;42.600;23.476;2023-02-26T05:53:46;22.07;;;5.20;;
67941;SDS011;54731;42.600;23.476;2023-02-26T05:56:11;21.70;;;4.57;;
67941;SDS011;54731;42.600;23.476;2023-02-26T05:58:37;17.27;;;4.00;;
67941;SDS011;54731;42.600;23.476;2023-02-26T06:01:02;25.07;;;3.17;;
67941;SDS011;54731;42.600;23.476;2023-02-26T06:03:28;14.95;;;4.40;;
67941;SDS011;54731;42.600;23.476;2023-02-26T06:05:53;12.33;;;2.20;;
67941;SDS011;54731;42.600;23.476;2023-02-26T06:08:19;14.37;;;2.63;;
67941;SDS011;54731;42.600;23.476;2023-02-26T06:10:44;25.93;;;2.87;;
67941;SDS011;54731;42.600;23.476;2023-02-26T06:13:09;21.73;;;3.40;;
67941;SDS011;54731;42.600;23.476;2023-02-26T06:15:35;26.23;;;4.30;;
67941;SDS011;54731;42.600;23.476;2023-02-26T06:18:00;17.03;;;3.63;;
67941;SDS011;54731;42.600;23.476;2023-02-26T06:20:25;19.77;;;3.33;;
67941;SDS011;54731;42.600;23.476;2023-02-26T06:22:51;20.73;;;5.80;;
67941;SDS011;54731;42.600;23.476;2023-02-26T06:25:16;10.87;;;2.17;;
67941;SDS011;54731;42.600;23.476;2023-02-26T06:27:41;15.87;;;2.63;;
67941;SDS011;54731;42.600;23.476;2023-02-26T06:30:07;14.67;;;3.83;;
67941;SDS011;54731;42.600;23.476;2023-02-26T06:32:33;20.80;;;3.72;;
67941;SDS011;54731;42.600;23.476;2023-02-26T06:34:58;21.30;;;3.63;;
67941;SDS011;54731;42.600;23.476;2023-02-26T06:37:23;21.73;;;3.13;;
67941;SDS011;54731;42.600;23.476;2023-02-26T06:39:49;18.10;;;6.32;;
67941;SDS011;54731;42.600;23.476;2023-02-26T06:42:14;21.63;;;4.17;;
67941;SDS011;54731;42.600;23.476;2023-02-26T06:44:39;19.27;;;4.20;;
67941;SDS011;54731;42.600;23.476;2023-02-26T06:47:05;18.33;;;4.33;;
67941;SDS011;54731;42.600;23.476;2023-02-26T06:49:30;15.33;;;3.97;;
67941;SDS011;54731;42.600;23.476;2023-02-26T06:51:55;21.80;;;3.53;;
67941;SDS011;54731;42.600;23.476;2023-02-26T06:54:21;18.40;;;2.87;;
67941;SDS011;54731;42.600;23.476;2023-02-26T06:56:46;14.13;;;3.72;;
67941;SDS011;54731;42.600;23.476;2023-02-26T06:59:12;20.33;;;3.90;;
67941;SDS011;54731;42.600;23.476;2023-02-26T07:01:37;16.53;;;4.10;;
67941;SDS011;54731;42.600;23.476;2023-02-26T07:04:02;17.10;;;2.70;;
67941;SDS011;54731;42.600;23.476;2023-02-26T07:06:28;20.40;;;3.40;;
67941;SDS011;54731;42.600;23.476;2023-02-26T07:08:53;46.43;;;30.83;;
67941;SDS011;54731;42.600;23.476;2023-02-26T07:11:19;19.90;;;6.00;;
67941;SDS011;54731;42.600;23.476;2023-02-26T07:13:44;20.07;;;3.77;;
67941;SDS011;54731;42.600;23.476;2023-02-26T07:16:09;15.73;;;3.10;;
67941;SDS011;54731;42.600;23.476;2023-02-26T07:18:35;17.70;;;2.50;;
67941;SDS011;54731;42.600;23.476;2023-02-26T07:21:01;14.48;;;2.42;;
67941;SDS011;54731;42.600;23.476;2023-02-26T07:23:28;17.02;;;3.03;;
67941;SDS011;54731;42.600;23.476;2023-02-26T07:25:53;13.80;;;3.40;;
67941;SDS011;54731;42.600;23.476;2023-02-26T07:28:19;18.40;;;3.13;;
67941;SDS011;54731;42.600;23.476;2023-02-26T07:30:44;15.55;;;2.83;;
67941;SDS011;54731;42.600;23.476;2023-02-26T07:33:09;21.60;;;3.33;;
67941;SDS011;54731;42.600;23.476;2023-02-26T07:35:35;18.23;;;3.93;;
67941;SDS011;54731;42.600;23.476;2023-02-26T07:38:00;27.70;;;3.90;;
67941;SDS011;54731;42.600;23.476;2023-02-26T07:40:26;13.67;;;2.53;;
67941;SDS011;54731;42.600;23.476;2023-02-26T07:42:51;19.73;;;2.97;;
67941;SDS011;54731;42.600;23.476;2023-02-26T07:45:16;21.77;;;3.03;;
67941;SDS011;54731;42.600;23.476;2023-02-26T07:47:42;14.13;;;2.23;;
67941;SDS011;54731;42.600;23.476;2023-02-26T07:50:07;22.03;;;2.87;;
67941;SDS011;54731;42.600;23.476;2023-02-26T07:52:33;20.55;;;2.75;;
67941;SDS011;54731;42.600;23.476;2023-02-26T07:54:59;25.73;;;3.90;;
67941;SDS011;54731;42.600;23.476;2023-02-26T07:57:24;19.23;;;2.30;;
67941;SDS011;54731;42.600;23.476;2023-02-26T07:59:49;19.53;;;4.07;;
67941;SDS011;54731;42.600;23.476;2023-02-26T08:02:14;19.83;;;3.00;;
67941;SDS011;54731;42.600;23.476;2023-02-26T08:04:40;14.87;;;3.23;;
67941;SDS011;54731;42.600;23.476;2023-02-26T08:07:05;17.03;;;3.07;;
67941;SDS011;54731;42.600;23.476;2023-02-26T08:09:30;14.47;;;2.13;;
67941;SDS011;54731;42.600;23.476;2023-02-26T08:11:56;19.42;;;4.18;;
67941;SDS011;54731;42.600;23.476;2023-02-26T08:14:21;16.23;;;2.73;;
67941;SDS011;54731;42.600;23.476;2023-02-26T08:16:47;15.60;;;2.50;;
67941;SDS011;54731;42.600;23.476;2023-02-26T08:19:12;24.17;;;3.90;;
67941;SDS011;54731;42.600;23.476;2023-02-26T08:21:38;10.27;;;2.47;;
67941;SDS011;54731;42.600;23.476;2023-02-26T08:24:03;22.97;;;3.30;;
67941;SDS011;54731;42.600;23.476;2023-02-26T08:26:29;16.00;;;3.38;;
67941;SDS011;54731;42.600;23.476;2023-02-26T08:28:54;23.65;;;2.72;;
67941;SDS011;54731;42.600;23.476;2023-02-26T08:31:19;14.40;;;3.03;;
67941;SDS011;54731;42.600;23.476;2023-02-26T08:33:45;11.10;;;2.77;;
67941;SDS011;54731;42.600;23.476;2023-02-26T08:36:11;17.98;;;3.80;;
67941;SDS011;54731;42.600;23.476;2023-02-26T08:38:36;33.50;;;5.20;;
67941;SDS011;54731;42.600;23.476;2023-02-26T08:41:02;24.87;;;5.13;;
67941;SDS011;54731;42.600;23.476;2023-02-26T08:43:27;23.43;;;4.63;;
67941;SDS011;54731;42.600;23.476;2023-02-26T08:45:53;19.25;;;3.65;;
67941;SDS011;54731;42.600;23.476;2023-02-26T08:48:20;23.10;;;3.70;;
67941;SDS011;54731;42.600;23.476;2023-02-26T08:50:46;19.52;;;5.68;;
67941;SDS011;54731;42.600;23.476;2023-02-26T08:53:11;15.15;;;4.63;;
67941;SDS011;54731;42.600;23.476;2023-02-26T08:55:36;21.03;;;3.07;;
67941;SDS011;54731;42.600;23.476;2023-02-26T08:58:02;22.60;;;3.93;;
67941;SDS011;54731;42.600;23.476;2023-02-26T09:00:27;18.90;;;3.30;;
67941;SDS011;54731;42.600;23.476;2023-02-26T09:02:53;21.97;;;3.57;;
67941;SDS011;54731;42.600;23.476;2023-02-26T09:05:18;22.33;;;4.07;;
67941;SDS011;54731;42.600;23.476;2023-02-26T09:07:43;21.67;;;5.60;;
67941;SDS011;54731;42.600;23.476;2023-02-26T09:10:09;25.15;;;4.30;;
67941;SDS011;54731;42.600;23.476;2023-02-26T09:12:35;12.25;;;3.10;;
67941;SDS011;54731;42.600;23.476;2023-02-26T09:15:02;22.83;;;3.90;;
67941;SDS011;54731;42.600;23.476;2023-02-26T09:17:28;21.05;;;5.88;;
67941;SDS011;54731;42.600;23.476;2023-02-26T09:19:54;33.67;;;13.63;;
67941;SDS011;54731;42.600;23.476;2023-02-26T09:22:19;26.15;;;6.53;;
67941;SDS011;54731;42.600;23.476;2023-02-26T09:24:45;19.85;;;3.10;;
67941;SDS011;54731;42.600;23.476;2023-02-26T09:27:10;22.57;;;3.10;;
67941;SDS011;54731;42.600;23.476;2023-02-26T09:29:35;18.43;;;2.87;;
67941;SDS011;54731;42.600;23.476;2023-02-26T09:32:01;17.90;;;3.07;;
67941;SDS011;54731;42.600;23.476;2023-02-26T09:34:26;20.30;;;2.80;;
67941;SDS011;54731;42.600;23.476;2023-02-26T09:36:51;20.97;;;2.97;;
67941;SDS011;54731;42.600;23.476;2023-02-26T09:39:16;23.90;;;5.63;;
67941;SDS011;54731;42.600;23.476;2023-02-26T09:41:43;17.13;;;3.00;;
67941;SDS011;54731;42.600;23.476;2023-02-26T09:44:15;23.50;;;5.03;;
67941;SDS011;54731;42.600;23.476;2023-02-26T09:51:36;15.73;;;3.23;;
67941;SDS011;54731;42.600;23.476;2023-02-26T09:54:13;20.27;;;2.80;;
67941;SDS011;54731;42.600;23.476;2023-02-26T09:56:42;16.35;;;2.67;;
67941;SDS011;54731;42.600;23.476;2023-02-26T09:59:08;23.05;;;3.28;;
67941;SDS011;54731;42.600;23.476;2023-02-26T10:01:37;15.55;;;3.30;;
67941;SDS011;54731;42.600;23.476;2023-02-26T10:19:56;15.40;;;2.55;;
67941;SDS011;54731;42.600;23.476;2023-02-26T10:22:33;16.40;;;2.35;;
67941;SDS011;54731;42.600;23.476;2023-02-26T10:25:09;15.38;;;2.85;;
67941;SDS011;54731;42.600;23.476;2023-02-26T10:27:42;11.55;;;2.38;;
67941;SDS011;54731;42.600;23.476;2023-02-26T10:33:11;12.27;;;3.25;;
67941;SDS011;54731;42.600;23.476;2023-02-26T10:35:52;17.20;;;3.13;;
67941;SDS011;54731;42.600;23.476;2023-02-26T10:38:19;18.95;;;6.13;;
67941;SDS011;54731;42.600;23.476;2023-02-26T10:46:13;17.85;;;3.95;;
67941;SDS011;54731;42.600;23.476;2023-02-26T10:51:25;40.38;;;14.57;;
67941;SDS011;54731;42.600;23.476;2023-02-26T10:54:14;18.92;;;4.40;;
67941;SDS011;54731;42.600;23.476;2023-02-26T10:56:45;14.73;;;2.95;;
67941;SDS011;54731;42.600;23.476;2023-02-26T10:59:11;22.90;;;8.37;;
67941;SDS011;54731;42.600;23.476;2023-02-26T11:01:37;25.85;;;7.55;;
67941;SDS011;54731;42.600;23.476;2023-02-26T11:04:04;10.57;;;2.17;;
67941;SDS011;54731;42.600;23.476;2023-02-26T11:06:33;15.10;;;2.63;;
67941;SDS011;54731;42.600;23.476;2023-02-26T11:09:02;11.63;;;2.80;;
67941;SDS011;54731;42.600;23.476;2023-02-26T11:14:11;16.73;;;2.30;;
67941;SDS011;54731;42.600;23.476;2023-02-26T11:16:46;12.73;;;2.87;;
67941;SDS011;54731;42.600;23.476;2023-02-26T11:19:14;8.95;;;2.20;;
67941;SDS011;54731;42.600;23.476;2023-02-26T11:21:42;54.20;;;22.25;;
67941;SDS011;54731;42.600;23.476;2023-02-26T11:26:41;14.32;;;3.67;;
67941;SDS011;54731;42.600;23.476;2023-02-26T11:29:13;9.00;;;2.87;;
67941;SDS011;54731;42.600;23.476;2023-02-26T11:31:41;31.75;;;12.43;;
67941;SDS011;54731;42.600;23.476;2023-02-26T11:34:07;12.33;;;4.33;;
67941;SDS011;54731;42.600;23.476;2023-02-26T11:36:36;17.83;;;6.05;;
67941;SDS011;54731;42.600;23.476;2023-02-26T11:39:14;31.20;;;6.18;;
67941;SDS011;54731;42.600;23.476;2023-02-26T11:41:43;20.45;;;4.30;;
67941;SDS011;54731;42.600;23.476;2023-02-26T11:44:11;23.02;;;5.35;;
67941;SDS011;54731;42.600;23.476;2023-02-26T11:46:41;34.88;;;11.77;;
67941;SDS011;54731;42.600;23.476;2023-02-26T11:49:11;18.23;;;4.00;;
67941;SDS011;54731;42.600;23.476;2023-02-26T11:51:41;20.42;;;4.80;;
67941;SDS011;54731;42.600;23.476;2023-02-26T11:54:19;15.57;;;6.43;;
67941;SDS011;54731;42.600;23.476;2023-02-26T11:56:48;17.63;;;2.60;;
67941;SDS011;54731;42.600;23.476;2023-02-26T11:59:18;10.90;;;3.65;;
67941;SDS011;54731;42.600;23.476;2023-02-26T12:01:46;20.52;;;10.23;;
67941;SDS011;54731;42.600;23.476;2023-02-26T12:04:13;34.27;;;13.70;;
67941;SDS011;54731;42.600;23.476;2023-02-26T12:06:42;20.15;;;6.07;;
67941;SDS011;54731;42.600;23.476;2023-02-26T12:09:10;14.73;;;5.07;;
67941;SDS011;54731;42.600;23.476;2023-02-26T12:20:23;17.35;;;3.63;;
67941;SDS011;54731;42.600;23.476;2023-02-26T12:23:15;19.02;;;5.93;;
67941;SDS011;54731;42.600;23.476;2023-02-26T12:39:55;13.95;;;4.47;;
67941;SDS011;54731;42.600;23.476;2023-02-26T12:42:50;54.20;;;22.13;;
67941;SDS011;54731;42.600;23.476;2023-02-26T12:58:37;51.20;;;22.63;;
67941;SDS011;54731;42.600;23.476;2023-02-26T13:01:14;34.33;;;14.17;;
67941;SDS011;54731;42.600;23.476;2023-02-26T13:07:36;98.88;;;46.67;;
67941;SDS011;54731;42.600;23.476;2023-02-26T13:10:00;29.70;;;9.35;;
67941;SDS011;54731;42.600;23.476;2023-02-26T13:17:52;39.00;;;18.70;;
67941;SDS011;54731;42.600;23.476;2023-02-26T13:20:24;15.65;;;4.88;;
67941;SDS011;54731;42.600;23.476;2023-02-26T13:23:02;15.43;;;3.95;;
67941;SDS011;54731;42.600;23.476;2023-02-26T13:25:35;18.10;;;4.20;;
67941;SDS011;54731;42.600;23.476;2023-02-26T13:31:07;21.50;;;4.30;;
67941;SDS011;54731;42.600;23.476;2023-02-26T13:33:37;20.85;;;3.65;;
67941;SDS011;54731;42.600;23.476;2023-02-26T13:36:04;18.40;;;3.45;;
67941;SDS011;54731;42.600;23.476;2023-02-26T13:41:15;22.87;;;4.37;;
67941;SDS011;54731;42.600;23.476;2023-02-26T13:45:14;20.40;;;5.00;;
67941;SDS011;54731;42.600;23.476;2023-02-26T13:55:44;27.43;;;4.33;;
67941;SDS011;54731;42.600;23.476;2023-02-26T14:01:05;30.40;;;5.30;;
67941;SDS011;54731;42.600;23.476;2023-02-26T14:03:34;26.38;;;5.43;;
67941;SDS011;54731;42.600;23.476;2023-02-26T14:11:46;25.92;;;6.00;;
67941;SDS011;54731;42.600;23.476;2023-02-26T14:14:38;29.70;;;6.15;;
67941;SDS011;54731;42.600;23.476;2023-02-26T14:24:44;30.50;;;6.93;;
67941;SDS011;54731;42.600;23.476;2023-02-26T14:29:43;37.30;;;6.13;;
67941;SDS011;54731;42.600;23.476;2023-02-26T14:33:08;33.13;;;7.13;;
67941;SDS011;54731;42.600;23.476;2023-02-26T14:35:31;31.13;;;5.65;;
67941;SDS011;54731;42.600;23.476;2023-02-26T14:38:05;38.07;;;5.70;;
67941;SDS011;54731;42.600;23.476;2023-02-26T14:40:41;38.47;;;8.48;;
67941;SDS011;54731;42.600;23.476;2023-02-26T14:43:14;39.78;;;10.68;;
67941;SDS011;54731;42.600;23.476;2023-02-26T14:45:44;34.67;;;6.68;;
67941;SDS011;54731;42.600;23.476;2023-02-26T14:48:12;39.80;;;9.33;;
67941;SDS011;54731;42.600;23.476;2023-02-26T14:56:06;36.63;;;4.82;;
67941;SDS011;54731;42.600;23.476;2023-02-26T15:07:00;37.30;;;7.28;;
67941;SDS011;54731;42.600;23.476;2023-02-26T15:15:12;31.88;;;4.95;;
67941;SDS011;54731;42.600;23.476;2023-02-26T15:18:04;39.55;;;10.32;;
67941;SDS011;54731;42.600;23.476;2023-02-26T15:26:03;31.77;;;5.43;;
67941;SDS011;54731;42.600;23.476;2023-02-26T15:28:30;37.53;;;6.95;;
67941;SDS011;54731;42.600;23.476;2023-02-26T15:31:00;41.47;;;8.00;;
67941;SDS011;54731;42.600;23.476;2023-02-26T15:33:25;24.00;;;6.93;;
67941;SDS011;54731;42.600;23.476;2023-02-26T15:35:51;30.80;;;6.23;;
67941;SDS011;54731;42.600;23.476;2023-02-26T15:38:19;29.45;;;5.07;;
67941;SDS011;54731;42.600;23.476;2023-02-26T15:40:44;25.40;;;5.63;;
67941;SDS011;54731;42.600;23.476;2023-02-26T15:43:15;28.90;;;4.35;;
67941;SDS011;54731;42.600;23.476;2023-02-26T15:45:48;30.23;;;5.88;;
67941;SDS011;54731;42.600;23.476;2023-02-26T15:48:18;30.00;;;5.27;;
67941;SDS011;54731;42.600;23.476;2023-02-26T15:50:51;31.38;;;7.07;;
67941;SDS011;54731;42.600;23.476;2023-02-26T15:53:22;31.73;;;8.52;;
67941;SDS011;54731;42.600;23.476;2023-02-26T15:55:54;32.03;;;6.05;;
67941;SDS011;54731;42.600;23.476;2023-02-26T15:58:24;33.13;;;5.10;;
67941;SDS011;54731;42.600;23.476;2023-02-26T16:01:05;26.63;;;5.23;;
67941;SDS011;54731;42.600;23.476;2023-02-26T16:03:31;21.15;;;4.55;;
67941;SDS011;54731;42.600;23.476;2023-02-26T16:05:59;26.30;;;4.95;;
67941;SDS011;54731;42.600;23.476;2023-02-26T16:08:25;40.80;;;5.00;;
67941;SDS011;54731;42.600;23.476;2023-02-26T16:10:51;26.52;;;5.78;;
67941;SDS011;54731;42.600;23.476;2023-02-26T16:13:22;44.13;;;14.70;;
67941;SDS011;54731;42.600;23.476;2023-02-26T16:15:57;30.73;;;14.55;;
67941;SDS011;54731;42.600;23.476;2023-02-26T16:18:25;26.85;;;5.95;;
67941;SDS011;54731;42.600;23.476;2023-02-26T16:20:52;37.43;;;5.37;;
67941;SDS011;54731;42.600;23.476;2023-02-26T16:23:21;32.50;;;7.38;;
67941;SDS011;54731;42.600;23.476;2023-02-26T16:25:57;31.05;;;8.43;;
67941;SDS011;54731;42.600;23.476;2023-02-26T16:28:31;31.67;;;8.88;;
67941;SDS011;54731;42.600;23.476;2023-02-26T16:30:59;62.67;;;25.63;;
67941;SDS011;54731;42.600;23.476;2023-02-26T16:33:30;28.75;;;10.85;;
67941;SDS011;54731;42.600;23.476;2023-02-26T16:36:31;44.13;;;10.57;;
67941;SDS011;54731;42.600;23.476;2023-02-26T16:38:58;58.42;;;26.08;;
67941;SDS011;54731;42.600;23.476;2023-02-26T16:41:36;39.33;;;12.18;;
67941;SDS011;54731;42.600;23.476;2023-02-26T16:44:04;43.10;;;13.07;;
67941;SDS011;54731;42.600;23.476;2023-02-26T16:47:00;51.75;;;23.08;;
67941;SDS011;54731;42.600;23.476;2023-02-26T16:49:30;41.95;;;17.98;;
67941;SDS011;54731;42.600;23.476;2023-02-26T16:51:58;36.80;;;12.52;;
67941;SDS011;54731;42.600;23.476;2023-02-26T16:54:35;24.17;;;5.03;;
67941;SDS011;54731;42.600;23.476;2023-02-26T16:57:03;110.60;;;38.75;;
67941;SDS011;54731;42.600;23.476;2023-02-26T16:59:36;50.58;;;13.52;;
67941;SDS011;54731;42.600;23.476;2023-02-26T17:04:34;81.50;;;29.63;;
67941;SDS011;54731;42.600;23.476;2023-02-26T17:07:00;50.63;;;18.33;;
67941;SDS011;54731;42.600;23.476;2023-02-26T17:09:36;158.25;;;61.58;;
67941;SDS011;54731;42.600;23.476;2023-02-26T17:14:51;42.67;;;13.43;;
67941;SDS011;54731;42.600;23.476;2023-02-26T17:17:22;118.22;;;45.42;;
67941;SDS011;54731;42.600;23.476;2023-02-26T17:19:48;135.50;;;49.13;;
67941;SDS011;54731;42.600;23.476;2023-02-26T17:22:14;85.00;;;30.60;;
67941;SDS011;54731;42.600;23.476;2023-02-26T17:24:43;192.75;;;72.57;;
67941;SDS011;54731;42.600;23.476;2023-02-26T17:27:13;113.25;;;45.22;;
67941;SDS011;54731;42.600;23.476;2023-02-26T17:29:42;126.72;;;44.95;;
67941;SDS011;54731;42.600;23.476;2023-02-26T17:32:11;126.43;;;54.38;;
67941;SDS011;54731;42.600;23.476;2023-02-26T17:34:41;64.60;;;23.98;;
67941;SDS011;54731;42.600;23.476;2023-02-26T17:37:08;53.15;;;12.85;;
67941;SDS011;54731;42.600;23.476;2023-02-26T17:39:36;41.97;;;14.27;;
67941;SDS011;54731;42.600;23.476;2023-02-26T17:42:01;99.00;;;39.63;;